createdAt,value
2023-03-10T07:49:47.428Z,8.50
2023-03-10T07:52:17.006Z,8.50
2023-03-10T07:54:44.696Z,8.60
2023-03-10T07:57:14.722Z,8.70
2023-03-10T08:01:57.107Z,8.90
2023-03-10T08:04:24.572Z,8.90
2023-03-10T08:06:51.991Z,8.90
2023-03-10T08:09:19.347Z,8.90
2023-03-10T08:27:07.929Z,9.00
2023-03-10T08:29:36.535Z,9.00
2023-03-10T08:32:04.037Z,9.20
2023-03-10T08:34:36.777Z,9.20
2023-03-10T08:37:05.055Z,9.30
2023-03-10T08:39:32.473Z,9.40
2023-03-10T08:41:59.821Z,9.70
2023-03-10T08:44:27.239Z,9.60
2023-03-10T08:46:55.182Z,9.70
2023-03-10T08:49:23.297Z,9.80
2023-03-10T08:51:50.742Z,10.00
2023-03-10T08:54:22.634Z,9.90
2023-03-10T08:56:50.599Z,9.90
2023-03-10T08:59:18.360Z,9.90
2023-03-10T09:01:46.259Z,9.80
2023-03-10T09:04:13.918Z,9.90
2023-03-10T09:06:41.469Z,10.00
2023-03-10T09:09:10.660Z,10.00
2023-03-10T09:11:40.890Z,10.10
2023-03-10T09:14:11.589Z,10.00
2023-03-10T09:16:40.436Z,10.10
2023-03-10T09:19:08.143Z,10.00
2023-03-10T09:21:35.724Z,10.20
2023-03-10T09:24:04.627Z,10.20
2023-03-10T09:26:32.328Z,10.20
2023-03-10T09:28:59.655Z,10.20
2023-03-10T09:31:35.321Z,10.20
2023-03-10T09:34:04.467Z,10.10
2023-03-10T09:36:32.915Z,10.20
2023-03-10T09:39:01.328Z,10.20
2023-03-10T09:42:14.965Z,10.20
2023-03-10T09:45:00.499Z,10.00
2023-03-10T09:47:48.168Z,9.90
2023-03-10T09:50:49.737Z,10.00
2023-03-10T09:54:04.103Z,10.10
2023-03-10T09:56:35.970Z,10.00
2023-03-10T09:59:33.821Z,10.10
2023-03-10T10:02:15.839Z,9.90
2023-03-10T10:04:43.907Z,9.90
2023-03-10T10:07:25.004Z,10.00
2023-03-10T10:10:20.287Z,10.10
2023-03-10T10:12:52.585Z,10.10
2023-03-10T10:15:26.798Z,10.00
2023-03-10T10:18:31.164Z,9.90
2023-03-10T10:21:13.985Z,9.80
2023-03-10T10:23:54.236Z,9.90
2023-03-10T10:26:26.620Z,10.10
2023-03-10T10:29:07.006Z,10.10
2023-03-10T10:31:36.111Z,10.40
2023-03-10T10:34:21.488Z,10.40
2023-03-10T10:36:55.419Z,10.50
2023-03-10T10:39:40.680Z,10.60
2023-03-10T10:42:32.746Z,10.40
2023-03-10T10:45:35.683Z,10.30
2023-03-10T10:48:03.960Z,10.20
2023-03-10T10:50:37.595Z,10.10
2023-03-10T10:53:21.781Z,10.30
2023-03-10T10:56:18.966Z,10.40
2023-03-10T10:59:16.098Z,10.40
2023-03-10T11:01:56.549Z,10.70
2023-03-10T11:04:48.785Z,10.30
2023-03-10T11:07:27.398Z,10.20
2023-03-10T11:09:58.229Z,10.40
2023-03-10T11:13:15.778Z,10.10
2023-03-10T11:16:22.149Z,10.20
2023-03-10T11:19:20.978Z,10.30
2023-03-10T11:21:58.827Z,9.90
2023-03-10T11:25:26.411Z,9.90
2023-03-10T11:28:36.856Z,10.00
2023-03-10T11:31:47.496Z,9.80
2023-03-10T11:34:30.672Z,9.70
2023-03-10T11:37:55.614Z,10.20
2023-03-10T11:40:50.999Z,10.10
2023-03-10T11:43:55.593Z,10.20
2023-03-10T11:47:18.868Z,10.30
2023-03-10T11:50:08.999Z,10.50
2023-03-10T11:52:37.477Z,10.50
2023-03-10T11:55:20.924Z,10.20
2023-03-10T11:57:55.303Z,10.60
2023-03-10T12:00:38.253Z,10.80
2023-03-10T12:04:02.205Z,10.40
2023-03-10T12:07:22.407Z,10.10
2023-03-10T12:10:01.368Z,10.70
2023-03-10T12:12:37.905Z,10.70
2023-03-10T12:15:37.128Z,10.40
2023-03-10T12:18:07.890Z,10.30
2023-03-10T12:20:36.524Z,10.00
2023-03-10T12:23:09.747Z,10.70
2023-03-10T12:25:38.148Z,10.50
2023-03-10T12:28:17.232Z,10.20
2023-03-10T12:31:35.210Z,10.30
2023-03-10T12:34:32.348Z,10.90
2023-03-10T12:37:12.066Z,10.60
2023-03-10T12:39:44.401Z,10.50
2023-03-10T12:42:34.566Z,10.40
2023-03-10T12:45:29.323Z,10.00
2023-03-10T12:48:18.306Z,9.70
2023-03-10T12:51:05.087Z,9.80
2023-03-10T12:54:26.069Z,9.90
2023-03-10T12:57:37.220Z,9.80
2023-03-10T13:00:45.417Z,10.00
2023-03-10T13:03:41.851Z,9.90
2023-03-10T13:06:36.929Z,9.70
2023-03-10T13:09:33.129Z,9.50
2023-03-10T13:12:46.076Z,9.40
2023-03-10T13:15:32.459Z,9.20
2023-03-10T13:18:22.390Z,9.40
2023-03-10T13:20:50.480Z,9.10
2023-03-10T13:23:32.453Z,9.20
2023-03-10T13:26:07.739Z,9.10
2023-03-10T13:28:36.516Z,9.00
2023-03-10T13:31:33.702Z,8.80
2023-03-10T13:34:22.051Z,9.10
2023-03-10T13:36:49.831Z,9.10
2023-03-10T13:39:27.421Z,8.60
2023-03-10T13:42:01.371Z,8.40
2023-03-10T13:44:40.837Z,8.80
2023-03-10T13:47:21.898Z,8.90
2023-03-10T13:50:01.393Z,8.90
2023-03-10T13:52:31.760Z,9.50
2023-03-10T13:55:17.122Z,9.60
2023-03-10T13:57:48.315Z,9.40
2023-03-10T14:00:26.278Z,9.40
2023-03-10T14:02:54.973Z,9.30
2023-03-10T14:05:47.508Z,9.30
2023-03-10T14:08:32.452Z,9.60
2023-03-10T14:11:44.662Z,9.40
2023-03-10T14:14:25.601Z,9.50
2023-03-10T14:17:00.714Z,9.80
2023-03-10T14:19:42.974Z,9.80
2023-03-10T14:22:41.548Z,10.00
2023-03-10T14:25:22.792Z,9.60
2023-03-10T14:28:12.784Z,9.80
2023-03-10T14:30:44.271Z,9.90
2023-03-10T14:33:16.620Z,9.90
2023-03-10T14:35:48.359Z,9.70
2023-03-10T14:38:17.161Z,10.00
2023-03-10T14:40:54.237Z,9.80
2023-03-10T14:43:27.503Z,9.50
2023-03-10T14:46:01.338Z,9.40
2023-03-10T14:48:35.687Z,9.40
2023-03-10T14:51:03.278Z,9.20
2023-03-10T14:53:31.885Z,9.40
2023-03-10T14:56:02.587Z,9.60
2023-03-10T14:58:44.330Z,9.60
2023-03-10T15:01:11.739Z,9.60
2023-03-10T15:03:39.087Z,9.70
2023-03-10T15:06:07.335Z,9.50
2023-03-10T15:08:34.757Z,9.60
2023-03-10T15:11:02.573Z,9.60
2023-03-10T15:13:29.930Z,9.60
2023-03-10T15:15:57.401Z,9.60
2023-03-10T15:18:27.092Z,9.40
2023-03-10T15:20:59.295Z,9.40
2023-03-10T15:23:30.905Z,9.50
2023-03-10T15:25:59.138Z,9.60
2023-03-10T15:28:26.668Z,9.60
2023-03-10T15:30:54.801Z,9.60
2023-03-10T15:33:22.211Z,9.50
2023-03-10T15:35:50.029Z,9.60
2023-03-10T15:38:17.463Z,9.60
2023-03-10T15:40:44.864Z,9.50
2023-03-10T15:43:12.882Z,9.60
2023-03-10T15:45:49.116Z,9.50
2023-03-10T15:48:17.153Z,9.70
2023-03-10T15:50:48.966Z,9.70
2023-03-10T15:53:16.350Z,9.50
2023-03-10T15:55:43.965Z,9.60
2023-03-10T15:58:12.514Z,9.60
2023-03-10T16:00:42.286Z,9.40
2023-03-10T16:03:11.230Z,9.40
2023-03-10T16:05:39.263Z,9.40
2023-03-10T16:08:06.838Z,9.40
2023-03-10T16:10:39.939Z,9.50
2023-03-10T16:13:07.820Z,9.50
2023-03-10T16:15:39.388Z,9.60
2023-03-10T16:18:06.651Z,9.60
2023-03-10T16:20:34.076Z,9.40
2023-03-10T16:23:02.052Z,9.50
2023-03-10T16:25:29.433Z,9.40
2023-03-10T16:27:56.745Z,9.40
2023-03-10T16:30:24.300Z,9.50
2023-03-10T16:32:51.848Z,9.50
2023-03-10T16:35:19.518Z,9.50
2023-03-10T16:37:46.811Z,9.50
2023-03-10T16:40:14.685Z,9.50
2023-03-10T16:42:45.513Z,9.50
2023-03-10T16:45:13.479Z,9.60
2023-03-10T16:47:41.179Z,9.60
2023-03-10T16:50:12.684Z,9.60
2023-03-10T16:52:42.968Z,9.50
2023-03-10T16:55:17.339Z,9.50
2023-03-10T16:57:45.856Z,9.50
2023-03-10T17:00:15.366Z,9.50
2023-03-10T17:02:42.720Z,9.40
2023-03-10T17:05:10.369Z,9.50
2023-03-10T17:07:46.415Z,9.40
2023-03-10T17:10:21.079Z,9.30
2023-03-10T17:12:48.469Z,9.40
2023-03-10T17:15:16.031Z,9.40
2023-03-10T17:17:43.485Z,9.50
2023-03-10T17:20:12.499Z,9.50
2023-03-10T17:22:40.205Z,9.40
2023-03-10T17:25:08.611Z,9.30
2023-03-10T17:27:35.941Z,9.40
2023-03-10T17:30:03.546Z,9.30
2023-03-10T17:32:31.000Z,9.20
2023-03-10T17:34:58.410Z,9.30
2023-03-10T17:37:25.784Z,9.20
2023-03-10T17:39:54.533Z,9.20
2023-03-10T17:42:22.642Z,9.20
2023-03-10T17:44:50.044Z,9.30
2023-03-10T17:47:17.411Z,9.10
2023-03-10T17:49:45.511Z,9.20
2023-03-10T17:52:12.845Z,9.20
2023-03-10T17:54:40.643Z,9.10
2023-03-10T17:57:08.107Z,9.00
2023-03-10T17:59:39.065Z,8.90
2023-03-10T18:02:06.721Z,8.80
2023-03-10T18:04:36.497Z,8.80
2023-03-10T18:07:03.874Z,8.90
2023-03-10T18:09:31.211Z,8.80
2023-03-10T18:11:58.689Z,9.00
2023-03-10T18:14:26.643Z,8.50
2023-03-10T18:16:53.976Z,8.60
2023-03-10T18:19:21.548Z,8.50
2023-03-10T18:21:51.026Z,8.50
2023-03-10T18:24:18.399Z,8.40
2023-03-10T18:26:45.802Z,8.40
2023-03-10T18:29:14.374Z,8.50
2023-03-10T18:31:41.865Z,8.50
2023-03-10T18:34:10.231Z,8.40
2023-03-10T18:36:37.657Z,8.40
2023-03-10T18:39:07.254Z,8.60
2023-03-10T18:41:35.450Z,8.50
2023-03-10T18:44:02.993Z,8.40
2023-03-10T18:46:30.682Z,8.50
2023-03-10T18:48:58.067Z,8.70
2023-03-10T18:51:28.705Z,8.40
2023-03-10T18:53:55.961Z,8.30
2023-03-10T18:56:26.014Z,8.30
2023-03-10T18:58:53.588Z,8.40
2023-03-10T19:01:21.609Z,8.00
2023-03-10T19:03:49.320Z,8.00
2023-03-10T19:06:16.670Z,8.10
2023-03-10T19:08:44.149Z,7.90
2023-03-10T19:11:12.148Z,7.80
2023-03-10T19:13:40.548Z,7.90
2023-03-10T19:16:10.794Z,7.70
2023-03-10T19:18:38.438Z,7.50
2023-03-10T19:21:06.939Z,7.70
2023-03-10T19:23:34.978Z,7.70
2023-03-10T19:26:03.656Z,7.20
2023-03-10T19:28:31.434Z,6.90
2023-03-10T19:30:58.909Z,6.80
2023-03-10T19:33:26.657Z,6.70
2023-03-10T19:36:05.326Z,6.50
2023-03-10T19:38:36.808Z,6.60
2023-03-10T19:41:06.650Z,6.50
2023-03-10T19:43:35.856Z,6.50
2023-03-10T19:46:11.630Z,6.40
2023-03-10T19:48:40.558Z,6.30
2023-03-10T19:51:09.144Z,6.50
2023-03-10T19:53:36.736Z,6.30
2023-03-10T19:56:07.659Z,6.20
2023-03-10T19:58:34.967Z,6.30
2023-03-10T20:01:02.409Z,6.30
2023-03-10T20:03:31.684Z,6.00
2023-03-10T20:05:59.051Z,6.20
2023-03-10T20:08:26.546Z,6.40
2023-03-10T20:10:53.829Z,6.30
2023-03-10T20:13:21.185Z,6.10
2023-03-10T20:15:49.180Z,6.10
2023-03-10T20:18:18.470Z,6.30
2023-03-10T20:20:45.962Z,6.00
2023-03-10T20:23:15.323Z,6.00
2023-03-10T20:25:43.599Z,5.90
2023-03-10T20:28:11.282Z,6.00
2023-03-10T20:30:39.915Z,5.80
2023-03-10T20:33:08.159Z,5.80
2023-03-10T20:35:37.202Z,5.90
2023-03-10T20:38:04.611Z,5.80
2023-03-10T20:40:32.018Z,5.70
2023-03-10T20:42:59.722Z,5.80
